Chambersburg, PA (17201)

5:06 AM EDT on April 25, 2015 (GMT -0400)
Chambersburg | | Change Station
CLOSE
Current Station
Personal Weather Station
Location: Chambersburg, PA
Elevation: 714 ft
Nearby Weather Stations
Active Advisory: Freeze Warning

Elev 714 ft 39.96 °N, 77.66 °W | Updated 19 seconds ago

Clear
Clear
38.1 °F
Feels Like 36 °F
N
3.1
Wind Variable Wind from NW
Gusts 3.8 mph

Today
High -- | Low -- °F
--% Chance of Precip.
Yesterday
High -- | Low -- °F
Precip. -- in
6:19 AM 7:58 PM
Waxing Crescent, 44% visible
Pressure 30.00 in
Visibility 10.0 miles
Clouds Mostly Cloudy 11000 ft
Windchill 36 °F
Dew Point 16 °F
Humidity 41%
Rainfall 0.00 in
Snow Depth Not available.
UV 0 out of 12
Pollen 10.70 out of 12
Air Quality Not available.
Flu Activity Sporadic
METAR KHGR 250853Z AUTO 34006KT 10SM BKN110 04/M11 A2996 RMK AO2 SLP158 T00441106 58000

More Conditions Fewer Conditions

Pressure 30.00 in
Visibility 10.0 miles
Clouds Mostly Cloudy 11000 ft
Windchill 36 °F
Dew Point 16 °F
Humidity 41%
Rainfall 0.00 in
Snow Depth Not available.
UV 0 out of 12
Pollen 10.70 out of 12
Air Quality Not available.
Flu Activity Sporadic
METAR KHGR 250853Z AUTO 34006KT 10SM BKN110 04/M11 A2996 RMK AO2 SLP158 T00441106 58000

More Conditions Fewer Conditions

10-Day Weather Forecast

Almanac

Astronomy

Apr. 25, 2015 Rise Set
Actual Time
Civil Twilight
Nautical Twilight
Astronomical Twilight
Moon
Length of Visible Light
Length of Day
Tomorrow will be .
, % of the Moon is Illuminated

Today's Extremes

State Highs State Lows

Community

WunderPhotos

Upload Photos

1,816,631 photos uploaded!

WunderBlogs® & News

Nearby

Air Quality

  Air Quality AQ Index Pollutant
Not available.

Snow Depth

Station Depth Elevation

Earthquake Activity

City Distance Mag. Time & Date
Minimum magnitude displayed is 2.5.

Coastal Water Temperatures

Place Temperature

Stations

Nearby Weather Stations

Station Location Temp. Windchill Dew Point Humidity Wind Precip. Elev Updated Type
                   
Freeze Warning
Statement as of 3:56 AM EDT on April 25, 2015

... A freeze warning remains in effect until 9 am EDT this
morning...

* minimum temperatures... low temperatures between 28 and 32
degrees early this morning.

* Impacts... possible damage to sensitive crops and vegetation.

Precautionary/preparedness actions...

Those with agricultural or gardening interests should protect
sensitive crops and vegetation. Potted plants normally left
outdoors should be covered or brought inside.



Lambert